sensor_id;sensor_type;location;lat;lon;timestamp;P1;durP1;ratioP1;P2;durP2;ratioP2
80307;SDS011;69616;43.522;1.348;2023-06-22T00:00:48;8.93;;;2.63;;
80307;SDS011;69616;43.522;1.348;2023-06-22T00:03:14;7.35;;;2.78;;
80307;SDS011;69616;43.522;1.348;2023-06-22T00:05:40;10.27;;;2.80;;
80307;SDS011;69616;43.522;1.348;2023-06-22T00:08:05;7.63;;;2.53;;
80307;SDS011;69616;43.522;1.348;2023-06-22T00:10:31;10.47;;;2.97;;
80307;SDS011;69616;43.522;1.348;2023-06-22T00:12:56;12.23;;;2.67;;
80307;SDS011;69616;43.522;1.348;2023-06-22T00:15:21;10.90;;;2.63;;
80307;SDS011;69616;43.522;1.348;2023-06-22T00:17:47;7.97;;;2.57;;
80307;SDS011;69616;43.522;1.348;2023-06-22T00:20:12;10.20;;;3.13;;
80307;SDS011;69616;43.522;1.348;2023-06-22T00:22:39;9.80;;;2.70;;
80307;SDS011;69616;43.522;1.348;2023-06-22T00:25:06;13.67;;;2.70;;
80307;SDS011;69616;43.522;1.348;2023-06-22T00:27:32;8.25;;;2.63;;
80307;SDS011;69616;43.522;1.348;2023-06-22T00:29:57;5.50;;;2.43;;
80307;SDS011;69616;43.522;1.348;2023-06-22T00:32:23;7.63;;;2.10;;
80307;SDS011;69616;43.522;1.348;2023-06-22T00:34:48;9.57;;;2.30;;
80307;SDS011;69616;43.522;1.348;2023-06-22T00:37:15;7.40;;;2.30;;
80307;SDS011;69616;43.522;1.348;2023-06-22T00:39:41;10.13;;;2.40;;
80307;SDS011;69616;43.522;1.348;2023-06-22T00:42:07;6.85;;;2.05;;
80307;SDS011;69616;43.522;1.348;2023-06-22T00:44:33;6.70;;;2.00;;
80307;SDS011;69616;43.522;1.348;2023-06-22T00:46:58;7.73;;;2.07;;
80307;SDS011;69616;43.522;1.348;2023-06-22T00:49:25;7.07;;;1.92;;
80307;SDS011;69616;43.522;1.348;2023-06-22T00:51:51;7.17;;;2.20;;
80307;SDS011;69616;43.522;1.348;2023-06-22T00:54:17;5.82;;;1.80;;
80307;SDS011;69616;43.522;1.348;2023-06-22T00:56:53;6.32;;;1.60;;
80307;SDS011;69616;43.522;1.348;2023-06-22T00:59:22;8.02;;;1.92;;
80307;SDS011;69616;43.522;1.348;2023-06-22T01:01:49;8.52;;;1.55;;
80307;SDS011;69616;43.522;1.348;2023-06-22T01:04:14;7.77;;;1.73;;
80307;SDS011;69616;43.522;1.348;2023-06-22T01:07:17;8.43;;;1.67;;
80307;SDS011;69616;43.522;1.348;2023-06-22T01:09:38;6.07;;;1.60;;
80307;SDS011;69616;43.522;1.348;2023-06-22T01:12:14;6.50;;;1.27;;
80307;SDS011;69616;43.522;1.348;2023-06-22T01:14:42;5.68;;;1.48;;
80307;SDS011;69616;43.522;1.348;2023-06-22T01:17:12;6.27;;;1.37;;
80307;SDS011;69616;43.522;1.348;2023-06-22T01:19:48;5.40;;;1.40;;
80307;SDS011;69616;43.522;1.348;2023-06-22T01:22:20;8.15;;;1.60;;
80307;SDS011;69616;43.522;1.348;2023-06-22T01:24:57;5.90;;;1.30;;
80307;SDS011;69616;43.522;1.348;2023-06-22T01:27:53;10.35;;;1.20;;
80307;SDS011;69616;43.522;1.348;2023-06-22T01:30:26;5.20;;;1.30;;
80307;SDS011;69616;43.522;1.348;2023-06-22T01:32:54;6.28;;;1.00;;
80307;SDS011;69616;43.522;1.348;2023-06-22T01:35:21;6.43;;;0.90;;
80307;SDS011;69616;43.522;1.348;2023-06-22T01:37:48;4.80;;;1.00;;
80307;SDS011;69616;43.522;1.348;2023-06-22T01:40:15;6.28;;;1.00;;
80307;SDS011;69616;43.522;1.348;2023-06-22T01:42:40;6.77;;;1.03;;
80307;SDS011;69616;43.522;1.348;2023-06-22T01:45:08;6.13;;;1.10;;
80307;SDS011;69616;43.522;1.348;2023-06-22T01:47:35;6.38;;;1.20;;
80307;SDS011;69616;43.522;1.348;2023-06-22T01:50:01;5.27;;;0.90;;
80307;SDS011;69616;43.522;1.348;2023-06-22T01:52:27;5.97;;;1.00;;
80307;SDS011;69616;43.522;1.348;2023-06-22T01:54:52;5.10;;;0.97;;
80307;SDS011;69616;43.522;1.348;2023-06-22T01:57:18;5.63;;;1.07;;
80307;SDS011;69616;43.522;1.348;2023-06-22T02:02:12;6.32;;;0.95;;
80307;SDS011;69616;43.522;1.348;2023-06-22T02:07:17;5.70;;;0.88;;
80307;SDS011;69616;43.522;1.348;2023-06-22T02:09:44;8.13;;;1.00;;
80307;SDS011;69616;43.522;1.348;2023-06-22T02:12:12;5.93;;;1.10;;
80307;SDS011;69616;43.522;1.348;2023-06-22T02:14:42;5.78;;;1.00;;
80307;SDS011;69616;43.522;1.348;2023-06-22T02:17:08;8.03;;;0.80;;
80307;SDS011;69616;43.522;1.348;2023-06-22T02:19:37;4.88;;;1.00;;
80307;SDS011;69616;43.522;1.348;2023-06-22T02:22:04;7.18;;;1.38;;
80307;SDS011;69616;43.522;1.348;2023-06-22T02:24:30;7.78;;;0.90;;
80307;SDS011;69616;43.522;1.348;2023-06-22T02:27:00;5.05;;;0.90;;
80307;SDS011;69616;43.522;1.348;2023-06-22T02:29:26;5.47;;;0.77;;
80307;SDS011;69616;43.522;1.348;2023-06-22T02:31:52;6.63;;;1.05;;
80307;SDS011;69616;43.522;1.348;2023-06-22T02:34:18;5.28;;;0.90;;
80307;SDS011;69616;43.522;1.348;2023-06-22T02:36:47;6.60;;;1.10;;
80307;SDS011;69616;43.522;1.348;2023-06-22T02:39:19;10.32;;;1.17;;
80307;SDS011;69616;43.522;1.348;2023-06-22T02:41:47;7.68;;;0.90;;
80307;SDS011;69616;43.522;1.348;2023-06-22T02:44:16;7.65;;;1.17;;
80307;SDS011;69616;43.522;1.348;2023-06-22T02:46:42;5.95;;;1.20;;
80307;SDS011;69616;43.522;1.348;2023-06-22T02:49:07;7.50;;;1.10;;
80307;SDS011;69616;43.522;1.348;2023-06-22T02:51:33;7.77;;;1.30;;
80307;SDS011;69616;43.522;1.348;2023-06-22T02:53:59;9.40;;;1.38;;
80307;SDS011;69616;43.522;1.348;2023-06-22T02:56:25;7.10;;;1.42;;
80307;SDS011;69616;43.522;1.348;2023-06-22T02:58:51;7.97;;;1.30;;
80307;SDS011;69616;43.522;1.348;2023-06-22T03:01:17;6.90;;;1.20;;
80307;SDS011;69616;43.522;1.348;2023-06-22T03:03:48;9.23;;;1.42;;
80307;SDS011;69616;43.522;1.348;2023-06-22T03:06:13;10.90;;;1.60;;
80307;SDS011;69616;43.522;1.348;2023-06-22T03:08:39;10.20;;;1.77;;
80307;SDS011;69616;43.522;1.348;2023-06-22T03:11:04;6.70;;;1.50;;
80307;SDS011;69616;43.522;1.348;2023-06-22T03:13:29;11.35;;;1.85;;
80307;SDS011;69616;43.522;1.348;2023-06-22T03:15:55;12.80;;;1.87;;
80307;SDS011;69616;43.522;1.348;2023-06-22T03:18:21;8.43;;;1.50;;
80307;SDS011;69616;43.522;1.348;2023-06-22T03:20:47;10.57;;;1.83;;
80307;SDS011;69616;43.522;1.348;2023-06-22T03:23:12;8.77;;;1.63;;
80307;SDS011;69616;43.522;1.348;2023-06-22T03:25:38;8.37;;;1.70;;
80307;SDS011;69616;43.522;1.348;2023-06-22T03:28:03;9.47;;;1.90;;
80307;SDS011;69616;43.522;1.348;2023-06-22T03:30:29;8.93;;;2.33;;
80307;SDS011;69616;43.522;1.348;2023-06-22T03:32:54;9.05;;;2.72;;
80307;SDS011;69616;43.522;1.348;2023-06-22T03:35:19;7.37;;;2.50;;
80307;SDS011;69616;43.522;1.348;2023-06-22T03:37:45;11.20;;;2.90;;
80307;SDS011;69616;43.522;1.348;2023-06-22T03:40:10;7.53;;;2.50;;
80307;SDS011;69616;43.522;1.348;2023-06-22T03:42:36;9.82;;;2.90;;
80307;SDS011;69616;43.522;1.348;2023-06-22T03:45:02;9.10;;;2.57;;
80307;SDS011;69616;43.522;1.348;2023-06-22T03:47:28;7.90;;;3.33;;
80307;SDS011;69616;43.522;1.348;2023-06-22T03:49:54;8.70;;;3.23;;
80307;SDS011;69616;43.522;1.348;2023-06-22T03:52:20;8.20;;;2.80;;
80307;SDS011;69616;43.522;1.348;2023-06-22T03:54:47;13.57;;;3.70;;
80307;SDS011;69616;43.522;1.348;2023-06-22T03:57:13;8.60;;;2.83;;
80307;SDS011;69616;43.522;1.348;2023-06-22T03:59:38;8.37;;;2.43;;
80307;SDS011;69616;43.522;1.348;2023-06-22T04:02:04;14.90;;;3.00;;
80307;SDS011;69616;43.522;1.348;2023-06-22T04:04:29;6.50;;;2.87;;
80307;SDS011;69616;43.522;1.348;2023-06-22T04:06:54;8.70;;;2.90;;
80307;SDS011;69616;43.522;1.348;2023-06-22T04:09:20;12.13;;;3.60;;
80307;SDS011;69616;43.522;1.348;2023-06-22T04:11:46;12.38;;;2.90;;
80307;SDS011;69616;43.522;1.348;2023-06-22T04:14:12;14.50;;;3.10;;
80307;SDS011;69616;43.522;1.348;2023-06-22T04:16:38;9.48;;;2.88;;
80307;SDS011;69616;43.522;1.348;2023-06-22T04:19:03;8.80;;;3.10;;
80307;SDS011;69616;43.522;1.348;2023-06-22T04:21:28;10.30;;;3.30;;
80307;SDS011;69616;43.522;1.348;2023-06-22T04:23:54;8.60;;;3.07;;
80307;SDS011;69616;43.522;1.348;2023-06-22T04:26:19;8.20;;;2.85;;
80307;SDS011;69616;43.522;1.348;2023-06-22T04:28:46;13.10;;;3.17;;
80307;SDS011;69616;43.522;1.348;2023-06-22T04:31:16;10.65;;;3.40;;
80307;SDS011;69616;43.522;1.348;2023-06-22T04:33:42;7.88;;;3.70;;
80307;SDS011;69616;43.522;1.348;2023-06-22T04:36:07;9.67;;;3.47;;
80307;SDS011;69616;43.522;1.348;2023-06-22T04:38:33;8.67;;;3.77;;
80307;SDS011;69616;43.522;1.348;2023-06-22T04:40:58;10.93;;;4.57;;
80307;SDS011;69616;43.522;1.348;2023-06-22T04:43:26;10.67;;;5.07;;
80307;SDS011;69616;43.522;1.348;2023-06-22T04:45:55;14.10;;;4.80;;
80307;SDS011;69616;43.522;1.348;2023-06-22T04:48:21;13.50;;;4.90;;
80307;SDS011;69616;43.522;1.348;2023-06-22T04:50:46;12.77;;;4.60;;
80307;SDS011;69616;43.522;1.348;2023-06-22T04:53:12;12.30;;;5.13;;
80307;SDS011;69616;43.522;1.348;2023-06-22T04:55:37;15.52;;;5.35;;
80307;SDS011;69616;43.522;1.348;2023-06-22T04:58:06;12.32;;;5.28;;
80307;SDS011;69616;43.522;1.348;2023-06-22T05:00:32;11.50;;;5.03;;
80307;SDS011;69616;43.522;1.348;2023-06-22T05:03:01;12.10;;;5.25;;
80307;SDS011;69616;43.522;1.348;2023-06-22T05:05:28;10.77;;;5.20;;
80307;SDS011;69616;43.522;1.348;2023-06-22T05:07:56;12.30;;;6.13;;
80307;SDS011;69616;43.522;1.348;2023-06-22T05:10:25;14.55;;;5.47;;
80307;SDS011;69616;43.522;1.348;2023-06-22T05:12:51;11.43;;;5.30;;
80307;SDS011;69616;43.522;1.348;2023-06-22T05:15:17;11.83;;;5.43;;
80307;SDS011;69616;43.522;1.348;2023-06-22T05:17:44;10.52;;;5.55;;
80307;SDS011;69616;43.522;1.348;2023-06-22T05:20:10;10.40;;;5.47;;
80307;SDS011;69616;43.522;1.348;2023-06-22T05:22:36;12.03;;;5.33;;
80307;SDS011;69616;43.522;1.348;2023-06-22T05:25:02;11.68;;;5.80;;
80307;SDS011;69616;43.522;1.348;2023-06-22T05:27:27;13.80;;;6.43;;
80307;SDS011;69616;43.522;1.348;2023-06-22T05:29:53;14.20;;;6.60;;
80307;SDS011;69616;43.522;1.348;2023-06-22T05:32:18;13.40;;;5.82;;
80307;SDS011;69616;43.522;1.348;2023-06-22T05:34:44;16.53;;;6.60;;
80307;SDS011;69616;43.522;1.348;2023-06-22T05:37:09;15.13;;;6.70;;
80307;SDS011;69616;43.522;1.348;2023-06-22T05:39:34;15.60;;;7.57;;
80307;SDS011;69616;43.522;1.348;2023-06-22T05:42:03;14.68;;;7.10;;
80307;SDS011;69616;43.522;1.348;2023-06-22T05:44:30;17.90;;;6.85;;
80307;SDS011;69616;43.522;1.348;2023-06-22T05:46:55;15.53;;;7.50;;
80307;SDS011;69616;43.522;1.348;2023-06-22T05:49:20;16.47;;;7.60;;
80307;SDS011;69616;43.522;1.348;2023-06-22T05:51:47;13.93;;;7.20;;
80307;SDS011;69616;43.522;1.348;2023-06-22T05:54:13;16.17;;;7.50;;
80307;SDS011;69616;43.522;1.348;2023-06-22T05:56:40;14.77;;;7.10;;
80307;SDS011;69616;43.522;1.348;2023-06-22T05:59:06;14.27;;;7.78;;
80307;SDS011;69616;43.522;1.348;2023-06-22T06:01:31;19.57;;;8.07;;
80307;SDS011;69616;43.522;1.348;2023-06-22T06:03:59;16.35;;;7.60;;
80307;SDS011;69616;43.522;1.348;2023-06-22T06:06:25;16.07;;;7.33;;
80307;SDS011;69616;43.522;1.348;2023-06-22T06:08:53;16.55;;;8.20;;
80307;SDS011;69616;43.522;1.348;2023-06-22T06:11:19;15.97;;;7.17;;
80307;SDS011;69616;43.522;1.348;2023-06-22T06:13:44;17.57;;;7.47;;
80307;SDS011;69616;43.522;1.348;2023-06-22T06:16:10;15.55;;;7.32;;
80307;SDS011;69616;43.522;1.348;2023-06-22T06:18:35;14.18;;;6.95;;
80307;SDS011;69616;43.522;1.348;2023-06-22T06:21:02;15.27;;;7.27;;
80307;SDS011;69616;43.522;1.348;2023-06-22T06:23:28;21.02;;;7.80;;
80307;SDS011;69616;43.522;1.348;2023-06-22T06:25:53;19.07;;;8.03;;
80307;SDS011;69616;43.522;1.348;2023-06-22T06:28:19;15.60;;;8.67;;
80307;SDS011;69616;43.522;1.348;2023-06-22T06:30:44;17.23;;;7.68;;
80307;SDS011;69616;43.522;1.348;2023-06-22T06:33:12;16.87;;;6.77;;
80307;SDS011;69616;43.522;1.348;2023-06-22T06:35:37;18.95;;;7.07;;
80307;SDS011;69616;43.522;1.348;2023-06-22T06:38:03;12.27;;;6.30;;
80307;SDS011;69616;43.522;1.348;2023-06-22T06:40:28;15.33;;;5.63;;
80307;SDS011;69616;43.522;1.348;2023-06-22T06:42:54;14.88;;;6.85;;
80307;SDS011;69616;43.522;1.348;2023-06-22T06:45:20;12.70;;;6.33;;
80307;SDS011;69616;43.522;1.348;2023-06-22T06:47:50;12.63;;;6.13;;
80307;SDS011;69616;43.522;1.348;2023-06-22T06:50:17;14.63;;;6.03;;
80307;SDS011;69616;43.522;1.348;2023-06-22T06:52:43;9.80;;;5.60;;
80307;SDS011;69616;43.522;1.348;2023-06-22T06:55:09;13.50;;;5.47;;
80307;SDS011;69616;43.522;1.348;2023-06-22T06:57:38;11.43;;;4.90;;
80307;SDS011;69616;43.522;1.348;2023-06-22T07:00:07;10.07;;;4.47;;
80307;SDS011;69616;43.522;1.348;2023-06-22T07:02:39;9.02;;;4.50;;
80307;SDS011;69616;43.522;1.348;2023-06-22T07:05:06;11.93;;;4.55;;
80307;SDS011;69616;43.522;1.348;2023-06-22T07:07:32;11.65;;;4.50;;
80307;SDS011;69616;43.522;1.348;2023-06-22T07:09:58;8.93;;;3.80;;
80307;SDS011;69616;43.522;1.348;2023-06-22T07:12:23;10.50;;;3.72;;
80307;SDS011;69616;43.522;1.348;2023-06-22T07:14:49;8.40;;;3.20;;
80307;SDS011;69616;43.522;1.348;2023-06-22T07:17:15;7.82;;;3.55;;
80307;SDS011;69616;43.522;1.348;2023-06-22T07:19:40;8.17;;;3.33;;
80307;SDS011;69616;43.522;1.348;2023-06-22T07:22:07;9.20;;;3.65;;
80307;SDS011;69616;43.522;1.348;2023-06-22T07:24:32;9.10;;;3.17;;
80307;SDS011;69616;43.522;1.348;2023-06-22T07:26:58;9.00;;;3.30;;
80307;SDS011;69616;43.522;1.348;2023-06-22T07:29:24;7.50;;;3.00;;
80307;SDS011;69616;43.522;1.348;2023-06-22T07:31:50;6.18;;;2.90;;
80307;SDS011;69616;43.522;1.348;2023-06-22T07:34:16;7.25;;;2.92;;
80307;SDS011;69616;43.522;1.348;2023-06-22T07:36:42;6.73;;;3.03;;
80307;SDS011;69616;43.522;1.348;2023-06-22T07:39:08;9.13;;;3.17;;
80307;SDS011;69616;43.522;1.348;2023-06-22T07:41:33;7.10;;;2.87;;
80307;SDS011;69616;43.522;1.348;2023-06-22T07:43:59;7.78;;;3.03;;
80307;SDS011;69616;43.522;1.348;2023-06-22T07:46:24;8.30;;;2.67;;
80307;SDS011;69616;43.522;1.348;2023-06-22T07:48:50;9.70;;;2.63;;
80307;SDS011;69616;43.522;1.348;2023-06-22T07:51:15;10.80;;;2.80;;
80307;SDS011;69616;43.522;1.348;2023-06-22T07:53:41;5.90;;;2.42;;
80307;SDS011;69616;43.522;1.348;2023-06-22T07:56:09;7.03;;;2.13;;
80307;SDS011;69616;43.522;1.348;2023-06-22T07:58:35;6.57;;;2.50;;
80307;SDS011;69616;43.522;1.348;2023-06-22T08:01:01;6.20;;;2.10;;
80307;SDS011;69616;43.522;1.348;2023-06-22T08:03:27;6.97;;;2.20;;
80307;SDS011;69616;43.522;1.348;2023-06-22T08:05:52;5.43;;;2.07;;
80307;SDS011;69616;43.522;1.348;2023-06-22T08:08:18;5.77;;;2.40;;
80307;SDS011;69616;43.522;1.348;2023-06-22T08:10:43;5.40;;;2.50;;
80307;SDS011;69616;43.522;1.348;2023-06-22T08:13:09;6.97;;;2.00;;
80307;SDS011;69616;43.522;1.348;2023-06-22T08:15:35;5.65;;;2.17;;
80307;SDS011;69616;43.522;1.348;2023-06-22T08:18:00;6.33;;;2.30;;
80307;SDS011;69616;43.522;1.348;2023-06-22T08:20:26;6.30;;;2.30;;
80307;SDS011;69616;43.522;1.348;2023-06-22T08:22:53;7.47;;;2.90;;
80307;SDS011;69616;43.522;1.348;2023-06-22T08:25:19;6.70;;;2.20;;
80307;SDS011;69616;43.522;1.348;2023-06-22T08:27:46;5.75;;;2.20;;
80307;SDS011;69616;43.522;1.348;2023-06-22T08:30:12;6.57;;;2.40;;
80307;SDS011;69616;43.522;1.348;2023-06-22T08:32:38;5.93;;;2.40;;
80307;SDS011;69616;43.522;1.348;2023-06-22T08:35:03;5.87;;;2.43;;
80307;SDS011;69616;43.522;1.348;2023-06-22T08:37:30;8.37;;;2.90;;
80307;SDS011;69616;43.522;1.348;2023-06-22T08:39:59;7.13;;;2.33;;
80307;SDS011;69616;43.522;1.348;2023-06-22T08:42:26;8.00;;;2.60;;
80307;SDS011;69616;43.522;1.348;2023-06-22T08:44:52;5.95;;;2.58;;
80307;SDS011;69616;43.522;1.348;2023-06-22T08:47:18;6.45;;;2.35;;
80307;SDS011;69616;43.522;1.348;2023-06-22T08:49:44;7.60;;;2.90;;
80307;SDS011;69616;43.522;1.348;2023-06-22T08:52:09;8.30;;;2.90;;
80307;SDS011;69616;43.522;1.348;2023-06-22T08:54:35;9.30;;;3.20;;
80307;SDS011;69616;43.522;1.348;2023-06-22T08:57:00;7.27;;;3.23;;
80307;SDS011;69616;43.522;1.348;2023-06-22T08:59:27;7.25;;;3.00;;
80307;SDS011;69616;43.522;1.348;2023-06-22T09:01:53;7.23;;;3.00;;
80307;SDS011;69616;43.522;1.348;2023-06-22T09:04:18;6.25;;;2.30;;
80307;SDS011;69616;43.522;1.348;2023-06-22T09:06:43;7.33;;;3.23;;
80307;SDS011;69616;43.522;1.348;2023-06-22T09:09:12;7.38;;;3.03;;
80307;SDS011;69616;43.522;1.348;2023-06-22T09:11:38;7.57;;;2.80;;
80307;SDS011;69616;43.522;1.348;2023-06-22T09:14:03;8.27;;;2.95;;
80307;SDS011;69616;43.522;1.348;2023-06-22T09:16:29;5.90;;;2.87;;
80307;SDS011;69616;43.522;1.348;2023-06-22T09:18:55;6.47;;;2.72;;
80307;SDS011;69616;43.522;1.348;2023-06-22T09:21:20;7.60;;;3.10;;
80307;SDS011;69616;43.522;1.348;2023-06-22T09:23:46;7.28;;;2.92;;
80307;SDS011;69616;43.522;1.348;2023-06-22T09:26:15;7.07;;;3.13;;
80307;SDS011;69616;43.522;1.348;2023-06-22T09:28:40;10.02;;;3.00;;
80307;SDS011;69616;43.522;1.348;2023-06-22T09:31:06;6.63;;;2.73;;
80307;SDS011;69616;43.522;1.348;2023-06-22T09:33:31;6.27;;;3.10;;
80307;SDS011;69616;43.522;1.348;2023-06-22T09:35:57;7.40;;;2.92;;
80307;SDS011;69616;43.522;1.348;2023-06-22T09:38:22;6.80;;;2.73;;
80307;SDS011;69616;43.522;1.348;2023-06-22T09:40:47;5.83;;;2.70;;
80307;SDS011;69616;43.522;1.348;2023-06-22T09:43:13;6.33;;;2.70;;
80307;SDS011;69616;43.522;1.348;2023-06-22T09:45:38;6.90;;;3.10;;
80307;SDS011;69616;43.522;1.348;2023-06-22T09:48:04;8.13;;;2.83;;
80307;SDS011;69616;43.522;1.348;2023-06-22T09:50:29;7.33;;;3.10;;
80307;SDS011;69616;43.522;1.348;2023-06-22T09:52:55;7.00;;;2.87;;
80307;SDS011;69616;43.522;1.348;2023-06-22T09:55:20;7.25;;;3.08;;
80307;SDS011;69616;43.522;1.348;2023-06-22T09:57:47;8.73;;;2.80;;
80307;SDS011;69616;43.522;1.348;2023-06-22T10:00:12;6.72;;;3.10;;
80307;SDS011;69616;43.522;1.348;2023-06-22T10:02:39;7.05;;;3.17;;
80307;SDS011;69616;43.522;1.348;2023-06-22T10:05:06;9.37;;;3.07;;
80307;SDS011;69616;43.522;1.348;2023-06-22T10:07:32;6.72;;;3.00;;
80307;SDS011;69616;43.522;1.348;2023-06-22T10:09:58;6.47;;;3.10;;
80307;SDS011;69616;43.522;1.348;2023-06-22T10:12:23;7.15;;;2.88;;
80307;SDS011;69616;43.522;1.348;2023-06-22T10:14:48;7.77;;;2.97;;
80307;SDS011;69616;43.522;1.348;2023-06-22T10:17:14;7.07;;;2.70;;
80307;SDS011;69616;43.522;1.348;2023-06-22T10:19:39;8.00;;;2.67;;
80307;SDS011;69616;43.522;1.348;2023-06-22T10:22:06;7.50;;;3.10;;
80307;SDS011;69616;43.522;1.348;2023-06-22T10:24:32;6.40;;;2.60;;
80307;SDS011;69616;43.522;1.348;2023-06-22T10:26:57;5.67;;;2.77;;
80307;SDS011;69616;43.522;1.348;2023-06-22T10:29:22;6.90;;;2.43;;
80307;SDS011;69616;43.522;1.348;2023-06-22T10:31:48;5.77;;;2.70;;
80307;SDS011;69616;43.522;1.348;2023-06-22T10:34:13;6.83;;;3.20;;
80307;SDS011;69616;43.522;1.348;2023-06-22T10:36:39;9.73;;;2.80;;
80307;SDS011;69616;43.522;1.348;2023-06-22T10:39:04;5.22;;;2.33;;
80307;SDS011;69616;43.522;1.348;2023-06-22T10:41:30;6.55;;;2.80;;
80307;SDS011;69616;43.522;1.348;2023-06-22T10:43:56;9.43;;;2.80;;
80307;SDS011;69616;43.522;1.348;2023-06-22T10:46:21;7.57;;;2.80;;
80307;SDS011;69616;43.522;1.348;2023-06-22T10:48:49;7.28;;;2.63;;
80307;SDS011;69616;43.522;1.348;2023-06-22T10:51:14;7.30;;;2.47;;
80307;SDS011;69616;43.522;1.348;2023-06-22T10:53:39;5.15;;;2.47;;
80307;SDS011;69616;43.522;1.348;2023-06-22T10:56:05;6.37;;;2.67;;
80307;SDS011;69616;43.522;1.348;2023-06-22T10:58:30;7.27;;;2.50;;
80307;SDS011;69616;43.522;1.348;2023-06-22T11:00:55;9.70;;;2.67;;
80307;SDS011;69616;43.522;1.348;2023-06-22T11:03:21;6.20;;;2.80;;
80307;SDS011;69616;43.522;1.348;2023-06-22T11:05:46;6.88;;;2.55;;
80307;SDS011;69616;43.522;1.348;2023-06-22T11:08:12;5.47;;;2.40;;
80307;SDS011;69616;43.522;1.348;2023-06-22T11:10:38;6.03;;;2.67;;
80307;SDS011;69616;43.522;1.348;2023-06-22T11:13:03;5.83;;;2.47;;
80307;SDS011;69616;43.522;1.348;2023-06-22T11:15:30;5.80;;;2.25;;
80307;SDS011;69616;43.522;1.348;2023-06-22T11:17:55;5.57;;;2.40;;
80307;SDS011;69616;43.522;1.348;2023-06-22T11:20:21;5.37;;;2.27;;
80307;SDS011;69616;43.522;1.348;2023-06-22T11:22:46;8.03;;;2.20;;
80307;SDS011;69616;43.522;1.348;2023-06-22T11:25:12;6.20;;;2.20;;
80307;SDS011;69616;43.522;1.348;2023-06-22T11:27:37;6.33;;;2.30;;
80307;SDS011;69616;43.522;1.348;2023-06-22T11:30:03;4.93;;;2.10;;
80307;SDS011;69616;43.522;1.348;2023-06-22T11:32:29;5.73;;;2.20;;
80307;SDS011;69616;43.522;1.348;2023-06-22T11:34:54;4.93;;;1.92;;
80307;SDS011;69616;43.522;1.348;2023-06-22T11:37:20;4.97;;;2.30;;
80307;SDS011;69616;43.522;1.348;2023-06-22T11:39:45;6.17;;;2.00;;
80307;SDS011;69616;43.522;1.348;2023-06-22T11:42:11;6.57;;;2.20;;
80307;SDS011;69616;43.522;1.348;2023-06-22T11:44:36;6.07;;;2.00;;
80307;SDS011;69616;43.522;1.348;2023-06-22T11:47:02;5.83;;;2.40;;
80307;SDS011;69616;43.522;1.348;2023-06-22T11:49:29;6.07;;;2.50;;
80307;SDS011;69616;43.522;1.348;2023-06-22T11:51:55;5.35;;;2.42;;
80307;SDS011;69616;43.522;1.348;2023-06-22T11:54:21;6.97;;;2.23;;
80307;SDS011;69616;43.522;1.348;2023-06-22T11:56:46;6.17;;;2.30;;
80307;SDS011;69616;43.522;1.348;2023-06-22T11:59:11;7.47;;;2.80;;
80307;SDS011;69616;43.522;1.348;2023-06-22T12:01:37;6.00;;;2.60;;
80307;SDS011;69616;43.522;1.348;2023-06-22T12:04:02;6.57;;;2.40;;
80307;SDS011;69616;43.522;1.348;2023-06-22T12:06:30;6.53;;;2.65;;
80307;SDS011;69616;43.522;1.348;2023-06-22T12:08:57;5.53;;;2.40;;
80307;SDS011;69616;43.522;1.348;2023-06-22T12:11:22;7.13;;;2.50;;
80307;SDS011;69616;43.522;1.348;2023-06-22T12:13:48;6.93;;;2.57;;
80307;SDS011;69616;43.522;1.348;2023-06-22T12:16:13;5.30;;;2.40;;
80307;SDS011;69616;43.522;1.348;2023-06-22T12:18:39;5.17;;;2.40;;
80307;SDS011;69616;43.522;1.348;2023-06-22T12:21:04;5.03;;;2.40;;
80307;SDS011;69616;43.522;1.348;2023-06-22T12:23:29;6.13;;;2.50;;
80307;SDS011;69616;43.522;1.348;2023-06-22T12:25:55;5.00;;;2.40;;
80307;SDS011;69616;43.522;1.348;2023-06-22T12:28:20;5.93;;;2.20;;
80307;SDS011;69616;43.522;1.348;2023-06-22T12:30:46;6.50;;;2.60;;
80307;SDS011;69616;43.522;1.348;2023-06-22T12:33:11;5.28;;;2.13;;
80307;SDS011;69616;43.522;1.348;2023-06-22T12:35:36;5.60;;;2.47;;
80307;SDS011;69616;43.522;1.348;2023-06-22T12:38:02;7.33;;;2.87;;
80307;SDS011;69616;43.522;1.348;2023-06-22T12:40:28;6.00;;;2.30;;
80307;SDS011;69616;43.522;1.348;2023-06-22T12:42:53;5.33;;;2.40;;
80307;SDS011;69616;43.522;1.348;2023-06-22T12:45:19;5.50;;;2.20;;
80307;SDS011;69616;43.522;1.348;2023-06-22T12:47:46;6.07;;;2.55;;
80307;SDS011;69616;43.522;1.348;2023-06-22T12:50:12;4.93;;;2.40;;
80307;SDS011;69616;43.522;1.348;2023-06-22T12:52:37;6.43;;;2.70;;
80307;SDS011;69616;43.522;1.348;2023-06-22T12:55:05;6.18;;;2.60;;
80307;SDS011;69616;43.522;1.348;2023-06-22T12:57:30;6.53;;;2.70;;
80307;SDS011;69616;43.522;1.348;2023-06-22T12:59:56;6.07;;;3.00;;
80307;SDS011;69616;43.522;1.348;2023-06-22T13:02:23;6.95;;;2.90;;
80307;SDS011;69616;43.522;1.348;2023-06-22T13:04:48;10.40;;;3.20;;
80307;SDS011;69616;43.522;1.348;2023-06-22T13:07:14;6.90;;;3.00;;
80307;SDS011;69616;43.522;1.348;2023-06-22T13:09:39;9.30;;;3.20;;
80307;SDS011;69616;43.522;1.348;2023-06-22T13:12:05;8.60;;;3.42;;
80307;SDS011;69616;43.522;1.348;2023-06-22T13:14:31;9.40;;;3.50;;
80307;SDS011;69616;43.522;1.348;2023-06-22T13:16:56;7.87;;;3.10;;
80307;SDS011;69616;43.522;1.348;2023-06-22T13:19:21;6.70;;;3.07;;
80307;SDS011;69616;43.522;1.348;2023-06-22T13:21:47;6.70;;;3.17;;
80307;SDS011;69616;43.522;1.348;2023-06-22T13:24:12;7.77;;;3.20;;
80307;SDS011;69616;43.522;1.348;2023-06-22T13:26:38;7.37;;;2.97;;
80307;SDS011;69616;43.522;1.348;2023-06-22T13:29:03;7.97;;;3.30;;
80307;SDS011;69616;43.522;1.348;2023-06-22T13:31:29;6.32;;;2.80;;
80307;SDS011;69616;43.522;1.348;2023-06-22T13:33:54;6.67;;;3.00;;
80307;SDS011;69616;43.522;1.348;2023-06-22T13:36:19;5.57;;;2.87;;
80307;SDS011;69616;43.522;1.348;2023-06-22T13:38:46;5.10;;;2.72;;
80307;SDS011;69616;43.522;1.348;2023-06-22T13:41:12;6.18;;;3.00;;
80307;SDS011;69616;43.522;1.348;2023-06-22T13:43:37;9.20;;;3.37;;
80307;SDS011;69616;43.522;1.348;2023-06-22T13:46:03;8.48;;;3.60;;
80307;SDS011;69616;43.522;1.348;2023-06-22T13:48:28;6.77;;;3.57;;
80307;SDS011;69616;43.522;1.348;2023-06-22T13:50:54;8.83;;;3.67;;
80307;SDS011;69616;43.522;1.348;2023-06-22T13:53:19;9.60;;;4.07;;
80307;SDS011;69616;43.522;1.348;2023-06-22T13:55:45;8.27;;;3.57;;
80307;SDS011;69616;43.522;1.348;2023-06-22T13:58:10;7.30;;;3.80;;
80307;SDS011;69616;43.522;1.348;2023-06-22T14:00:35;7.77;;;4.00;;
80307;SDS011;69616;43.522;1.348;2023-06-22T14:03:01;9.73;;;4.50;;
80307;SDS011;69616;43.522;1.348;2023-06-22T14:05:26;10.95;;;4.47;;
80307;SDS011;69616;43.522;1.348;2023-06-22T14:07:52;7.47;;;4.10;;
80307;SDS011;69616;43.522;1.348;2023-06-22T14:10:17;12.17;;;4.47;;
80307;SDS011;69616;43.522;1.348;2023-06-22T14:12:42;9.23;;;4.30;;
80307;SDS011;69616;43.522;1.348;2023-06-22T14:15:08;10.03;;;4.37;;
80307;SDS011;69616;43.522;1.348;2023-06-22T14:17:33;8.75;;;4.05;;
80307;SDS011;69616;43.522;1.348;2023-06-22T14:19:59;9.53;;;4.17;;
80307;SDS011;69616;43.522;1.348;2023-06-22T14:22:24;9.53;;;4.13;;
80307;SDS011;69616;43.522;1.348;2023-06-22T14:24:50;9.07;;;4.00;;
80307;SDS011;69616;43.522;1.348;2023-06-22T14:27:16;9.37;;;4.07;;
80307;SDS011;69616;43.522;1.348;2023-06-22T14:29:41;10.68;;;3.92;;
80307;SDS011;69616;43.522;1.348;2023-06-22T14:32:07;8.47;;;3.83;;
80307;SDS011;69616;43.522;1.348;2023-06-22T14:34:33;8.80;;;3.50;;
80307;SDS011;69616;43.522;1.348;2023-06-22T14:37:01;7.78;;;3.95;;
80307;SDS011;69616;43.522;1.348;2023-06-22T14:39:27;10.18;;;3.90;;
80307;SDS011;69616;43.522;1.348;2023-06-22T14:41:52;7.53;;;3.47;;
80307;SDS011;69616;43.522;1.348;2023-06-22T14:44:17;8.87;;;3.50;;